sensor_id;sensor_type;location;lat;lon;timestamp;P1;durP1;ratioP1;P2;durP2;ratioP2
16015;SDS011;8112;53.592;10.184;2023-02-15T00:02:28;61.20;;;30.60;;
16015;SDS011;8112;53.592;10.184;2023-02-15T00:07:32;59.33;;;29.40;;
16015;SDS011;8112;53.592;10.184;2023-02-15T00:12:34;63.17;;;28.80;;
16015;SDS011;8112;53.592;10.184;2023-02-15T00:17:36;64.40;;;29.60;;
16015;SDS011;8112;53.592;10.184;2023-02-15T00:22:39;56.60;;;29.77;;
16015;SDS011;8112;53.592;10.184;2023-02-15T00:27:41;67.30;;;29.90;;
16015;SDS011;8112;53.592;10.184;2023-02-15T00:32:43;69.70;;;30.57;;
16015;SDS011;8112;53.592;10.184;2023-02-15T00:37:47;56.70;;;30.07;;
16015;SDS011;8112;53.592;10.184;2023-02-15T00:42:49;56.93;;;31.47;;
16015;SDS011;8112;53.592;10.184;2023-02-15T00:47:51;55.00;;;29.17;;
16015;SDS011;8112;53.592;10.184;2023-02-15T00:52:54;71.60;;;29.73;;
16015;SDS011;8112;53.592;10.184;2023-02-15T00:57:56;58.67;;;28.70;;
16015;SDS011;8112;53.592;10.184;2023-02-15T01:02:59;59.60;;;29.00;;
16015;SDS011;8112;53.592;10.184;2023-02-15T01:08:02;72.67;;;29.37;;
16015;SDS011;8112;53.592;10.184;2023-02-15T01:13:05;83.53;;;31.70;;
16015;SDS011;8112;53.592;10.184;2023-02-15T01:18:08;67.57;;;29.43;;
16015;SDS011;8112;53.592;10.184;2023-02-15T01:23:14;62.13;;;31.13;;
16015;SDS011;8112;53.592;10.184;2023-02-15T01:28:19;47.90;;;28.80;;
16015;SDS011;8112;53.592;10.184;2023-02-15T01:33:21;77.20;;;28.47;;
16015;SDS011;8112;53.592;10.184;2023-02-15T01:38:25;78.40;;;30.17;;
16015;SDS011;8112;53.592;10.184;2023-02-15T01:43:38;49.17;;;28.53;;
16015;SDS011;8112;53.592;10.184;2023-02-15T01:48:43;86.57;;;32.40;;
16015;SDS011;8112;53.592;10.184;2023-02-15T01:53:50;82.57;;;28.67;;
16015;SDS011;8112;53.592;10.184;2023-02-15T01:58:54;76.47;;;31.03;;
16015;SDS011;8112;53.592;10.184;2023-02-15T02:04:03;57.50;;;28.17;;
16015;SDS011;8112;53.592;10.184;2023-02-15T02:09:15;78.40;;;28.93;;
16015;SDS011;8112;53.592;10.184;2023-02-15T02:14:17;71.27;;;30.03;;
16015;SDS011;8112;53.592;10.184;2023-02-15T02:19:27;52.13;;;28.80;;
16015;SDS011;8112;53.592;10.184;2023-02-15T02:30:44;68.57;;;26.23;;
16015;SDS011;8112;53.592;10.184;2023-02-15T02:36:05;45.73;;;25.93;;
16015;SDS011;8112;53.592;10.184;2023-02-15T02:41:17;44.13;;;27.53;;
16015;SDS011;8112;53.592;10.184;2023-02-15T02:46:30;44.03;;;26.93;;
16015;SDS011;8112;53.592;10.184;2023-02-15T02:51:40;50.20;;;27.17;;
16015;SDS011;8112;53.592;10.184;2023-02-15T02:56:44;56.97;;;27.07;;
16015;SDS011;8112;53.592;10.184;2023-02-15T03:01:50;53.33;;;28.20;;
16015;SDS011;8112;53.592;10.184;2023-02-15T03:07:00;52.67;;;26.37;;
16015;SDS011;8112;53.592;10.184;2023-02-15T03:12:05;42.67;;;25.73;;
16015;SDS011;8112;53.592;10.184;2023-02-15T03:17:13;40.70;;;24.87;;
16015;SDS011;8112;53.592;10.184;2023-02-15T03:22:34;46.33;;;26.60;;
16015;SDS011;8112;53.592;10.184;2023-02-15T03:27:45;48.53;;;25.50;;
16015;SDS011;8112;53.592;10.184;2023-02-15T03:32:53;44.87;;;25.30;;
16015;SDS011;8112;53.592;10.184;2023-02-15T03:38:00;39.97;;;25.30;;
16015;SDS011;8112;53.592;10.184;2023-02-15T03:43:07;36.33;;;24.03;;
16015;SDS011;8112;53.592;10.184;2023-02-15T03:48:14;38.17;;;23.87;;
16015;SDS011;8112;53.592;10.184;2023-02-15T03:53:19;43.80;;;24.57;;
16015;SDS011;8112;53.592;10.184;2023-02-15T03:58:24;53.40;;;24.93;;
16015;SDS011;8112;53.592;10.184;2023-02-15T04:03:44;45.07;;;24.13;;
16015;SDS011;8112;53.592;10.184;2023-02-15T04:08:54;49.50;;;23.83;;
16015;SDS011;8112;53.592;10.184;2023-02-15T04:14:13;41.43;;;22.77;;
16015;SDS011;8112;53.592;10.184;2023-02-15T04:19:47;58.17;;;24.90;;
16015;SDS011;8112;53.592;10.184;2023-02-15T04:25:10;56.07;;;22.83;;
16015;SDS011;8112;53.592;10.184;2023-02-15T04:30:15;38.93;;;23.63;;
16015;SDS011;8112;53.592;10.184;2023-02-15T04:35:19;43.97;;;22.40;;
16015;SDS011;8112;53.592;10.184;2023-02-15T04:40:23;48.27;;;21.23;;
16015;SDS011;8112;53.592;10.184;2023-02-15T04:45:25;49.20;;;22.13;;
16015;SDS011;8112;53.592;10.184;2023-02-15T04:50:28;60.77;;;23.70;;
16015;SDS011;8112;53.592;10.184;2023-02-15T04:55:31;36.03;;;20.80;;
16015;SDS011;8112;53.592;10.184;2023-02-15T05:00:33;51.00;;;22.00;;
16015;SDS011;8112;53.592;10.184;2023-02-15T05:05:35;58.93;;;21.77;;
16015;SDS011;8112;53.592;10.184;2023-02-15T05:10:38;38.80;;;21.03;;
16015;SDS011;8112;53.592;10.184;2023-02-15T05:15:40;39.97;;;20.57;;
16015;SDS011;8112;53.592;10.184;2023-02-15T05:20:42;48.03;;;21.13;;
16015;SDS011;8112;53.592;10.184;2023-02-15T05:25:59;60.03;;;20.63;;
16015;SDS011;8112;53.592;10.184;2023-02-15T05:31:19;57.77;;;20.90;;
16015;SDS011;8112;53.592;10.184;2023-02-15T05:36:22;47.13;;;18.70;;
16015;SDS011;8112;53.592;10.184;2023-02-15T05:41:25;33.33;;;17.60;;
16015;SDS011;8112;53.592;10.184;2023-02-15T05:46:27;50.43;;;18.93;;
16015;SDS011;8112;53.592;10.184;2023-02-15T05:51:29;54.87;;;20.07;;
16015;SDS011;8112;53.592;10.184;2023-02-15T05:56:33;40.93;;;20.00;;
16015;SDS011;8112;53.592;10.184;2023-02-15T06:01:35;33.93;;;18.53;;
16015;SDS011;8112;53.592;10.184;2023-02-15T06:06:37;40.70;;;18.47;;
16015;SDS011;8112;53.592;10.184;2023-02-15T06:11:41;48.53;;;19.33;;
16015;SDS011;8112;53.592;10.184;2023-02-15T06:16:43;41.50;;;18.60;;
16015;SDS011;8112;53.592;10.184;2023-02-15T06:21:44;43.47;;;19.13;;
16015;SDS011;8112;53.592;10.184;2023-02-15T06:26:48;31.87;;;18.20;;
16015;SDS011;8112;53.592;10.184;2023-02-15T06:31:50;32.13;;;18.67;;
16015;SDS011;8112;53.592;10.184;2023-02-15T06:36:52;46.30;;;19.10;;
16015;SDS011;8112;53.592;10.184;2023-02-15T06:41:56;45.20;;;19.17;;
16015;SDS011;8112;53.592;10.184;2023-02-15T06:46:59;26.60;;;18.50;;
16015;SDS011;8112;53.592;10.184;2023-02-15T06:52:01;40.93;;;18.27;;
16015;SDS011;8112;53.592;10.184;2023-02-15T06:57:04;35.20;;;17.90;;
16015;SDS011;8112;53.592;10.184;2023-02-15T07:02:07;43.13;;;18.93;;
16015;SDS011;8112;53.592;10.184;2023-02-15T07:07:10;54.53;;;18.50;;
16015;SDS011;8112;53.592;10.184;2023-02-15T07:12:14;46.63;;;17.90;;
16015;SDS011;8112;53.592;10.184;2023-02-15T07:17:34;44.60;;;17.83;;
16015;SDS011;8112;53.592;10.184;2023-02-15T07:22:37;30.20;;;18.93;;
16015;SDS011;8112;53.592;10.184;2023-02-15T07:27:42;58.83;;;18.13;;
16015;SDS011;8112;53.592;10.184;2023-02-15T07:32:44;25.63;;;16.93;;
16015;SDS011;8112;53.592;10.184;2023-02-15T07:38:05;41.50;;;18.10;;
16015;SDS011;8112;53.592;10.184;2023-02-15T07:43:09;38.33;;;17.33;;
16015;SDS011;8112;53.592;10.184;2023-02-15T07:48:11;27.03;;;16.23;;
16015;SDS011;8112;53.592;10.184;2023-02-15T07:53:13;44.70;;;16.90;;
16015;SDS011;8112;53.592;10.184;2023-02-15T07:58:17;38.57;;;17.00;;
16015;SDS011;8112;53.592;10.184;2023-02-15T08:03:18;42.60;;;16.70;;
16015;SDS011;8112;53.592;10.184;2023-02-15T08:08:21;36.97;;;15.70;;
16015;SDS011;8112;53.592;10.184;2023-02-15T08:13:33;36.90;;;16.80;;
16015;SDS011;8112;53.592;10.184;2023-02-15T08:18:35;35.20;;;17.97;;
16015;SDS011;8112;53.592;10.184;2023-02-15T08:23:37;29.00;;;16.53;;
16015;SDS011;8112;53.592;10.184;2023-02-15T08:28:40;31.80;;;17.57;;
16015;SDS011;8112;53.592;10.184;2023-02-15T08:33:43;29.90;;;17.60;;
16015;SDS011;8112;53.592;10.184;2023-02-15T08:38:46;32.70;;;17.13;;
16015;SDS011;8112;53.592;10.184;2023-02-15T08:43:51;28.70;;;17.73;;
16015;SDS011;8112;53.592;10.184;2023-02-15T08:48:55;28.93;;;18.93;;
16015;SDS011;8112;53.592;10.184;2023-02-15T08:53:59;46.67;;;18.27;;
16015;SDS011;8112;53.592;10.184;2023-02-15T08:59:04;60.50;;;19.53;;
16015;SDS011;8112;53.592;10.184;2023-02-15T09:04:08;36.33;;;18.37;;
16015;SDS011;8112;53.592;10.184;2023-02-15T09:09:10;49.60;;;17.70;;
16015;SDS011;8112;53.592;10.184;2023-02-15T09:14:17;38.93;;;18.10;;
16015;SDS011;8112;53.592;10.184;2023-02-15T09:19:21;65.90;;;19.40;;
16015;SDS011;8112;53.592;10.184;2023-02-15T09:24:24;65.53;;;19.07;;
16015;SDS011;8112;53.592;10.184;2023-02-15T09:29:27;51.47;;;18.43;;
16015;SDS011;8112;53.592;10.184;2023-02-15T09:34:29;25.37;;;15.80;;
16015;SDS011;8112;53.592;10.184;2023-02-15T09:39:31;50.67;;;17.77;;
16015;SDS011;8112;53.592;10.184;2023-02-15T09:50:06;25.10;;;15.17;;
16015;SDS011;8112;53.592;10.184;2023-02-15T09:55:17;24.03;;;15.27;;
16015;SDS011;8112;53.592;10.184;2023-02-15T10:00:29;29.00;;;16.13;;
16015;SDS011;8112;53.592;10.184;2023-02-15T10:05:50;29.37;;;16.60;;
16015;SDS011;8112;53.592;10.184;2023-02-15T10:11:05;24.13;;;15.13;;
16015;SDS011;8112;53.592;10.184;2023-02-15T10:16:34;32.07;;;15.67;;
16015;SDS011;8112;53.592;10.184;2023-02-15T10:21:49;48.40;;;16.97;;
16015;SDS011;8112;53.592;10.184;2023-02-15T10:27:01;30.87;;;17.00;;
16015;SDS011;8112;53.592;10.184;2023-02-15T10:32:14;24.67;;;16.93;;
16015;SDS011;8112;53.592;10.184;2023-02-15T10:37:33;24.90;;;16.70;;
16015;SDS011;8112;53.592;10.184;2023-02-15T10:42:51;26.57;;;18.20;;
16015;SDS011;8112;53.592;10.184;2023-02-15T10:48:13;33.80;;;19.70;;
16015;SDS011;8112;53.592;10.184;2023-02-15T10:53:34;41.13;;;19.93;;
16015;SDS011;8112;53.592;10.184;2023-02-15T10:58:52;35.37;;;20.30;;
16015;SDS011;8112;53.592;10.184;2023-02-15T11:04:09;34.30;;;20.07;;
16015;SDS011;8112;53.592;10.184;2023-02-15T11:09:33;45.23;;;21.27;;
16015;SDS011;8112;53.592;10.184;2023-02-15T11:14:41;37.70;;;21.80;;
16015;SDS011;8112;53.592;10.184;2023-02-15T11:19:51;30.33;;;21.03;;
16015;SDS011;8112;53.592;10.184;2023-02-15T11:25:01;30.77;;;19.97;;
16015;SDS011;8112;53.592;10.184;2023-02-15T11:30:19;38.73;;;22.60;;
16015;SDS011;8112;53.592;10.184;2023-02-15T11:35:26;40.27;;;23.23;;
16015;SDS011;8112;53.592;10.184;2023-02-15T11:40:31;32.33;;;21.90;;
16015;SDS011;8112;53.592;10.184;2023-02-15T11:45:36;38.77;;;22.50;;
16015;SDS011;8112;53.592;10.184;2023-02-15T11:50:41;38.87;;;23.90;;
16015;SDS011;8112;53.592;10.184;2023-02-15T11:55:44;36.30;;;24.10;;
16015;SDS011;8112;53.592;10.184;2023-02-15T12:00:50;34.83;;;24.77;;
16015;SDS011;8112;53.592;10.184;2023-02-15T12:06:01;36.47;;;25.17;;
16015;SDS011;8112;53.592;10.184;2023-02-15T12:11:06;38.33;;;25.50;;
16015;SDS011;8112;53.592;10.184;2023-02-15T12:16:14;33.20;;;22.30;;
16015;SDS011;8112;53.592;10.184;2023-02-15T12:21:24;38.30;;;25.43;;
16015;SDS011;8112;53.592;10.184;2023-02-15T12:26:29;39.73;;;27.17;;
16015;SDS011;8112;53.592;10.184;2023-02-15T12:31:35;45.13;;;27.87;;
16015;SDS011;8112;53.592;10.184;2023-02-15T12:36:44;44.83;;;29.00;;
16015;SDS011;8112;53.592;10.184;2023-02-15T12:42:01;42.23;;;26.73;;
16015;SDS011;8112;53.592;10.184;2023-02-15T12:47:17;43.37;;;27.70;;
16015;SDS011;8112;53.592;10.184;2023-02-15T12:52:24;42.30;;;28.40;;
16015;SDS011;8112;53.592;10.184;2023-02-15T12:57:28;40.27;;;27.43;;
16015;SDS011;8112;53.592;10.184;2023-02-15T13:02:34;42.90;;;27.87;;
16015;SDS011;8112;53.592;10.184;2023-02-15T13:07:46;40.40;;;27.40;;
16015;SDS011;8112;53.592;10.184;2023-02-15T13:12:52;45.17;;;31.30;;
16015;SDS011;8112;53.592;10.184;2023-02-15T13:17:55;48.43;;;32.53;;
16015;SDS011;8112;53.592;10.184;2023-02-15T13:23:01;45.50;;;32.33;;
16015;SDS011;8112;53.592;10.184;2023-02-15T13:28:05;45.67;;;31.17;;
16015;SDS011;8112;53.592;10.184;2023-02-15T13:33:17;42.17;;;30.07;;
16015;SDS011;8112;53.592;10.184;2023-02-15T13:43:59;35.53;;;24.90;;
16015;SDS011;8112;53.592;10.184;2023-02-15T13:49:14;29.93;;;22.57;;
16015;SDS011;8112;53.592;10.184;2023-02-15T14:00:03;26.77;;;20.67;;
16015;SDS011;8112;53.592;10.184;2023-02-15T14:05:24;25.33;;;18.97;;
16015;SDS011;8112;53.592;10.184;2023-02-15T14:10:43;23.97;;;18.33;;
16015;SDS011;8112;53.592;10.184;2023-02-15T14:15:48;24.63;;;19.83;;
16015;SDS011;8112;53.592;10.184;2023-02-15T14:20:59;25.97;;;20.17;;
16015;SDS011;8112;53.592;10.184;2023-02-15T14:26:12;25.43;;;19.70;;
16015;SDS011;8112;53.592;10.184;2023-02-15T14:31:21;25.13;;;18.93;;
16015;SDS011;8112;53.592;10.184;2023-02-15T14:36:29;22.27;;;18.33;;
16015;SDS011;8112;53.592;10.184;2023-02-15T14:41:37;22.70;;;17.77;;
16015;SDS011;8112;53.592;10.184;2023-02-15T14:46:46;25.33;;;19.07;;
16015;SDS011;8112;53.592;10.184;2023-02-15T14:51:59;25.67;;;19.97;;
16015;SDS011;8112;53.592;10.184;2023-02-15T14:57:23;23.67;;;18.37;;
16015;SDS011;8112;53.592;10.184;2023-02-15T15:02:28;26.33;;;19.07;;
16015;SDS011;8112;53.592;10.184;2023-02-15T15:07:42;28.80;;;20.67;;
16015;SDS011;8112;53.592;10.184;2023-02-15T15:12:48;25.57;;;19.33;;
16015;SDS011;8112;53.592;10.184;2023-02-15T15:18:00;28.40;;;19.50;;
16015;SDS011;8112;53.592;10.184;2023-02-15T15:28:54;25.13;;;18.60;;
16015;SDS011;8112;53.592;10.184;2023-02-15T15:39:52;25.50;;;19.03;;
16015;SDS011;8112;53.592;10.184;2023-02-15T15:50:50;25.77;;;19.27;;
16015;SDS011;8112;53.592;10.184;2023-02-15T15:55:55;27.07;;;19.90;;
16015;SDS011;8112;53.592;10.184;2023-02-15T16:01:05;28.57;;;19.30;;
16015;SDS011;8112;53.592;10.184;2023-02-15T16:06:12;24.47;;;18.23;;
16015;SDS011;8112;53.592;10.184;2023-02-15T16:11:16;30.23;;;22.27;;
16015;SDS011;8112;53.592;10.184;2023-02-15T16:16:24;25.80;;;18.83;;
16015;SDS011;8112;53.592;10.184;2023-02-15T16:21:29;28.00;;;20.13;;
16015;SDS011;8112;53.592;10.184;2023-02-15T16:32:25;26.17;;;18.97;;
16015;SDS011;8112;53.592;10.184;2023-02-15T16:37:31;26.03;;;18.50;;
16015;SDS011;8112;53.592;10.184;2023-02-15T16:42:37;26.80;;;19.17;;
16015;SDS011;8112;53.592;10.184;2023-02-15T16:47:42;26.97;;;20.10;;
16015;SDS011;8112;53.592;10.184;2023-02-15T16:52:47;31.20;;;20.90;;
16015;SDS011;8112;53.592;10.184;2023-02-15T16:57:49;31.33;;;23.07;;
16015;SDS011;8112;53.592;10.184;2023-02-15T17:02:59;30.53;;;22.60;;
16015;SDS011;8112;53.592;10.184;2023-02-15T17:08:05;29.53;;;22.40;;
16015;SDS011;8112;53.592;10.184;2023-02-15T17:13:15;33.97;;;23.27;;
16015;SDS011;8112;53.592;10.184;2023-02-15T17:18:20;33.83;;;24.37;;
16015;SDS011;8112;53.592;10.184;2023-02-15T17:23:25;34.23;;;24.03;;
16015;SDS011;8112;53.592;10.184;2023-02-15T17:28:31;30.13;;;21.93;;
16015;SDS011;8112;53.592;10.184;2023-02-15T17:33:37;31.50;;;21.53;;
16015;SDS011;8112;53.592;10.184;2023-02-15T17:38:41;30.50;;;20.47;;
16015;SDS011;8112;53.592;10.184;2023-02-15T17:44:02;30.53;;;21.63;;
16015;SDS011;8112;53.592;10.184;2023-02-15T17:49:23;34.83;;;22.37;;
16015;SDS011;8112;53.592;10.184;2023-02-15T17:54:28;38.87;;;20.77;;
16015;SDS011;8112;53.592;10.184;2023-02-15T17:59:47;29.10;;;20.57;;
16015;SDS011;8112;53.592;10.184;2023-02-15T18:05:15;33.40;;;22.10;;
16015;SDS011;8112;53.592;10.184;2023-02-15T18:10:34;28.20;;;20.90;;
16015;SDS011;8112;53.592;10.184;2023-02-15T18:15:54;28.87;;;20.73;;
16015;SDS011;8112;53.592;10.184;2023-02-15T18:20:59;29.63;;;21.13;;
16015;SDS011;8112;53.592;10.184;2023-02-15T18:26:01;32.13;;;23.37;;
16015;SDS011;8112;53.592;10.184;2023-02-15T18:31:03;29.20;;;21.37;;
16015;SDS011;8112;53.592;10.184;2023-02-15T18:36:08;27.17;;;20.13;;
16015;SDS011;8112;53.592;10.184;2023-02-15T18:41:15;30.97;;;24.23;;
16015;SDS011;8112;53.592;10.184;2023-02-15T18:46:19;35.90;;;25.80;;
16015;SDS011;8112;53.592;10.184;2023-02-15T18:51:22;28.90;;;20.57;;
16015;SDS011;8112;53.592;10.184;2023-02-15T18:56:24;23.87;;;17.63;;
16015;SDS011;8112;53.592;10.184;2023-02-15T19:01:27;22.10;;;16.43;;
16015;SDS011;8112;53.592;10.184;2023-02-15T19:06:31;24.53;;;18.73;;
16015;SDS011;8112;53.592;10.184;2023-02-15T19:11:34;27.07;;;19.23;;
16015;SDS011;8112;53.592;10.184;2023-02-15T19:16:36;34.47;;;25.17;;
16015;SDS011;8112;53.592;10.184;2023-02-15T19:21:40;30.57;;;22.30;;
16015;SDS011;8112;53.592;10.184;2023-02-15T19:26:42;30.13;;;21.90;;
16015;SDS011;8112;53.592;10.184;2023-02-15T19:31:46;27.67;;;20.17;;
16015;SDS011;8112;53.592;10.184;2023-02-15T19:36:50;26.23;;;19.67;;
16015;SDS011;8112;53.592;10.184;2023-02-15T19:41:53;26.17;;;19.47;;
16015;SDS011;8112;53.592;10.184;2023-02-15T19:46:57;26.17;;;19.37;;
16015;SDS011;8112;53.592;10.184;2023-02-15T19:52:01;24.63;;;19.03;;
16015;SDS011;8112;53.592;10.184;2023-02-15T19:57:02;25.40;;;18.77;;
16015;SDS011;8112;53.592;10.184;2023-02-15T20:02:09;26.97;;;18.57;;
16015;SDS011;8112;53.592;10.184;2023-02-15T20:07:18;26.10;;;18.37;;
16015;SDS011;8112;53.592;10.184;2023-02-15T20:12:25;24.97;;;18.57;;
16015;SDS011;8112;53.592;10.184;2023-02-15T20:17:28;24.00;;;18.47;;
16015;SDS011;8112;53.592;10.184;2023-02-15T20:22:33;27.20;;;18.47;;
16015;SDS011;8112;53.592;10.184;2023-02-15T20:27:35;23.70;;;18.43;;
16015;SDS011;8112;53.592;10.184;2023-02-15T20:32:37;27.47;;;20.47;;
16015;SDS011;8112;53.592;10.184;2023-02-15T20:37:40;27.90;;;21.63;;
16015;SDS011;8112;53.592;10.184;2023-02-15T20:42:43;30.23;;;21.00;;
16015;SDS011;8112;53.592;10.184;2023-02-15T20:47:47;26.83;;;20.13;;
16015;SDS011;8112;53.592;10.184;2023-02-15T20:52:51;25.97;;;20.53;;
16015;SDS011;8112;53.592;10.184;2023-02-15T20:57:54;27.63;;;20.67;;
16015;SDS011;8112;53.592;10.184;2023-02-15T21:02:58;28.40;;;21.37;;
16015;SDS011;8112;53.592;10.184;2023-02-15T21:08:05;25.27;;;19.67;;
16015;SDS011;8112;53.592;10.184;2023-02-15T21:13:18;26.97;;;20.90;;
16015;SDS011;8112;53.592;10.184;2023-02-15T21:18:22;30.50;;;21.47;;
16015;SDS011;8112;53.592;10.184;2023-02-15T21:23:30;33.60;;;22.20;;
16015;SDS011;8112;53.592;10.184;2023-02-15T21:28:35;29.93;;;21.37;;
16015;SDS011;8112;53.592;10.184;2023-02-15T21:33:39;29.87;;;21.00;;
16015;SDS011;8112;53.592;10.184;2023-02-15T21:38:43;26.83;;;20.57;;
16015;SDS011;8112;53.592;10.184;2023-02-15T21:43:48;27.70;;;19.17;;
16015;SDS011;8112;53.592;10.184;2023-02-15T21:49:08;27.90;;;20.50;;
16015;SDS011;8112;53.592;10.184;2023-02-15T21:54:12;30.03;;;20.00;;
16015;SDS011;8112;53.592;10.184;2023-02-15T21:59:15;29.03;;;19.30;;
16015;SDS011;8112;53.592;10.184;2023-02-15T22:04:18;27.73;;;19.67;;
16015;SDS011;8112;53.592;10.184;2023-02-15T22:09:25;26.90;;;18.30;;
16015;SDS011;8112;53.592;10.184;2023-02-15T22:14:33;27.60;;;18.93;;
16015;SDS011;8112;53.592;10.184;2023-02-15T22:19:38;31.23;;;19.93;;
16015;SDS011;8112;53.592;10.184;2023-02-15T22:24:42;30.23;;;21.00;;
16015;SDS011;8112;53.592;10.184;2023-02-15T22:29:44;29.40;;;20.13;;
16015;SDS011;8112;53.592;10.184;2023-02-15T22:34:47;27.93;;;19.90;;
16015;SDS011;8112;53.592;10.184;2023-02-15T22:39:50;28.17;;;20.27;;
16015;SDS011;8112;53.592;10.184;2023-02-15T22:44:55;28.77;;;20.37;;
16015;SDS011;8112;53.592;10.184;2023-02-15T22:49:58;28.27;;;20.40;;
16015;SDS011;8112;53.592;10.184;2023-02-15T22:55:02;27.50;;;19.07;;
16015;SDS011;8112;53.592;10.184;2023-02-15T23:00:05;29.50;;;20.47;;
16015;SDS011;8112;53.592;10.184;2023-02-15T23:05:15;28.23;;;19.63;;
16015;SDS011;8112;53.592;10.184;2023-02-15T23:10:22;31.27;;;20.57;;
16015;SDS011;8112;53.592;10.184;2023-02-15T23:15:26;29.00;;;20.67;;
16015;SDS011;8112;53.592;10.184;2023-02-15T23:20:28;31.83;;;21.13;;
16015;SDS011;8112;53.592;10.184;2023-02-15T23:25:31;26.80;;;19.50;;
16015;SDS011;8112;53.592;10.184;2023-02-15T23:30:33;30.83;;;20.37;;
16015;SDS011;8112;53.592;10.184;2023-02-15T23:35:35;33.03;;;21.10;;
16015;SDS011;8112;53.592;10.184;2023-02-15T23:40:39;28.40;;;19.53;;
16015;SDS011;8112;53.592;10.184;2023-02-15T23:45:58;29.77;;;20.40;;
16015;SDS011;8112;53.592;10.184;2023-02-15T23:51:00;31.37;;;21.40;;
16015;SDS011;8112;53.592;10.184;2023-02-15T23:56:05;31.47;;;21.17;;
